sensor_id;sensor_type;location;lat;lon;timestamp;P1;durP1;ratioP1;P2;durP2;ratioP2
38853;SDS011;24606;51.992;4.198;2023-02-15T00:00:43;12.20;;;8.25;;
38853;SDS011;24606;51.992;4.198;2023-02-15T00:05:46;14.52;;;7.05;;
38853;SDS011;24606;51.992;4.198;2023-02-15T00:10:48;13.05;;;7.18;;
38853;SDS011;24606;51.992;4.198;2023-02-15T00:15:50;12.48;;;6.95;;
38853;SDS011;24606;51.992;4.198;2023-02-15T00:20:53;12.38;;;7.05;;
38853;SDS011;24606;51.992;4.198;2023-02-15T00:26:02;16.55;;;7.18;;
38853;SDS011;24606;51.992;4.198;2023-02-15T00:31:05;11.00;;;7.13;;
38853;SDS011;24606;51.992;4.198;2023-02-15T00:36:10;13.15;;;7.07;;
38853;SDS011;24606;51.992;4.198;2023-02-15T00:41:13;10.07;;;7.28;;
38853;SDS011;24606;51.992;4.198;2023-02-15T00:46:15;10.75;;;6.10;;
38853;SDS011;24606;51.992;4.198;2023-02-15T00:51:18;13.77;;;7.47;;
38853;SDS011;24606;51.992;4.198;2023-02-15T00:56:20;10.77;;;7.00;;
38853;SDS011;24606;51.992;4.198;2023-02-15T01:01:22;12.57;;;7.90;;
38853;SDS011;24606;51.992;4.198;2023-02-15T01:06:27;10.88;;;7.05;;
38853;SDS011;24606;51.992;4.198;2023-02-15T01:11:29;11.23;;;7.18;;
38853;SDS011;24606;51.992;4.198;2023-02-15T01:16:31;11.48;;;7.45;;
38853;SDS011;24606;51.992;4.198;2023-02-15T01:21:34;9.98;;;6.43;;
38853;SDS011;24606;51.992;4.198;2023-02-15T01:26:36;11.07;;;6.88;;
38853;SDS011;24606;51.992;4.198;2023-02-15T01:31:38;10.85;;;7.00;;
38853;SDS011;24606;51.992;4.198;2023-02-15T01:36:41;14.63;;;7.32;;
38853;SDS011;24606;51.992;4.198;2023-02-15T01:41:43;9.57;;;6.75;;
38853;SDS011;24606;51.992;4.198;2023-02-15T01:46:45;8.82;;;6.50;;
38853;SDS011;24606;51.992;4.198;2023-02-15T01:51:53;13.65;;;7.20;;
38853;SDS011;24606;51.992;4.198;2023-02-15T01:56:57;12.80;;;7.13;;
38853;SDS011;24606;51.992;4.198;2023-02-15T02:02:01;13.48;;;7.20;;
38853;SDS011;24606;51.992;4.198;2023-02-15T02:07:06;11.68;;;7.38;;
38853;SDS011;24606;51.992;4.198;2023-02-15T02:12:10;9.57;;;6.97;;
38853;SDS011;24606;51.992;4.198;2023-02-15T02:22:25;10.32;;;6.68;;
38853;SDS011;24606;51.992;4.198;2023-02-15T02:27:56;9.85;;;6.00;;
38853;SDS011;24606;51.992;4.198;2023-02-15T02:33:21;12.15;;;6.45;;
38853;SDS011;24606;51.992;4.198;2023-02-15T02:38:38;8.43;;;6.35;;
38853;SDS011;24606;51.992;4.198;2023-02-15T02:43:48;9.93;;;6.50;;
38853;SDS011;24606;51.992;4.198;2023-02-15T02:48:55;10.55;;;6.57;;
38853;SDS011;24606;51.992;4.198;2023-02-15T02:53:58;9.70;;;6.43;;
38853;SDS011;24606;51.992;4.198;2023-02-15T02:59:05;11.85;;;6.63;;
38853;SDS011;24606;51.992;4.198;2023-02-15T03:04:13;9.63;;;6.43;;
38853;SDS011;24606;51.992;4.198;2023-02-15T03:09:18;9.77;;;7.05;;
38853;SDS011;24606;51.992;4.198;2023-02-15T03:14:34;9.35;;;6.80;;
38853;SDS011;24606;51.992;4.198;2023-02-15T03:19:38;14.32;;;7.28;;
38853;SDS011;24606;51.992;4.198;2023-02-15T03:24:42;8.50;;;6.15;;
38853;SDS011;24606;51.992;4.198;2023-02-15T03:29:48;8.68;;;6.30;;
38853;SDS011;24606;51.992;4.198;2023-02-15T03:34:55;10.73;;;6.35;;
38853;SDS011;24606;51.992;4.198;2023-02-15T03:39:58;11.38;;;6.47;;
38853;SDS011;24606;51.992;4.198;2023-02-15T03:45:25;8.05;;;5.93;;
38853;SDS011;24606;51.992;4.198;2023-02-15T03:50:32;7.40;;;5.75;;
38853;SDS011;24606;51.992;4.198;2023-02-15T03:55:55;8.60;;;6.80;;
38853;SDS011;24606;51.992;4.198;2023-02-15T04:00:58;8.07;;;6.05;;
38853;SDS011;24606;51.992;4.198;2023-02-15T04:06:22;9.85;;;5.97;;
38853;SDS011;24606;51.992;4.198;2023-02-15T04:11:24;10.63;;;6.70;;
38853;SDS011;24606;51.992;4.198;2023-02-15T04:16:25;9.23;;;5.97;;
38853;SDS011;24606;51.992;4.198;2023-02-15T04:21:30;8.82;;;6.10;;
38853;SDS011;24606;51.992;4.198;2023-02-15T04:26:50;9.70;;;6.75;;
38853;SDS011;24606;51.992;4.198;2023-02-15T04:31:54;9.45;;;6.43;;
38853;SDS011;24606;51.992;4.198;2023-02-15T04:36:58;8.55;;;5.47;;
38853;SDS011;24606;51.992;4.198;2023-02-15T04:42:00;10.18;;;5.93;;
38853;SDS011;24606;51.992;4.198;2023-02-15T04:47:02;9.18;;;6.10;;
38853;SDS011;24606;51.992;4.198;2023-02-15T04:52:05;10.35;;;5.93;;
38853;SDS011;24606;51.992;4.198;2023-02-15T04:57:07;8.73;;;5.88;;
38853;SDS011;24606;51.992;4.198;2023-02-15T05:02:09;9.82;;;7.05;;
38853;SDS011;24606;51.992;4.198;2023-02-15T05:07:12;8.73;;;6.28;;
38853;SDS011;24606;51.992;4.198;2023-02-15T05:12:15;11.18;;;6.60;;
38853;SDS011;24606;51.992;4.198;2023-02-15T05:17:17;9.27;;;6.38;;
38853;SDS011;24606;51.992;4.198;2023-02-15T05:22:20;7.93;;;6.00;;
38853;SDS011;24606;51.992;4.198;2023-02-15T05:27:22;7.93;;;5.95;;
38853;SDS011;24606;51.992;4.198;2023-02-15T05:32:41;9.88;;;6.00;;
38853;SDS011;24606;51.992;4.198;2023-02-15T05:37:44;9.20;;;5.90;;
38853;SDS011;24606;51.992;4.198;2023-02-15T05:42:46;8.00;;;5.50;;
38853;SDS011;24606;51.992;4.198;2023-02-15T05:47:48;8.63;;;5.30;;
38853;SDS011;24606;51.992;4.198;2023-02-15T05:52:51;7.97;;;5.75;;
38853;SDS011;24606;51.992;4.198;2023-02-15T05:57:53;9.45;;;6.00;;
38853;SDS011;24606;51.992;4.198;2023-02-15T06:02:55;7.78;;;6.05;;
38853;SDS011;24606;51.992;4.198;2023-02-15T06:07:58;5.90;;;4.93;;
38853;SDS011;24606;51.992;4.198;2023-02-15T06:13:00;8.38;;;5.55;;
38853;SDS011;24606;51.992;4.198;2023-02-15T06:18:02;7.25;;;5.00;;
38853;SDS011;24606;51.992;4.198;2023-02-15T06:23:05;9.73;;;5.80;;
38853;SDS011;24606;51.992;4.198;2023-02-15T06:28:07;7.05;;;5.22;;
38853;SDS011;24606;51.992;4.198;2023-02-15T06:33:09;7.20;;;5.40;;
38853;SDS011;24606;51.992;4.198;2023-02-15T06:38:12;9.10;;;5.57;;
38853;SDS011;24606;51.992;4.198;2023-02-15T06:43:15;8.40;;;4.75;;
38853;SDS011;24606;51.992;4.198;2023-02-15T06:48:16;9.70;;;6.10;;
38853;SDS011;24606;51.992;4.198;2023-02-15T06:53:20;8.30;;;5.65;;
38853;SDS011;24606;51.992;4.198;2023-02-15T06:58:21;10.25;;;5.35;;
38853;SDS011;24606;51.992;4.198;2023-02-15T07:15:25;12.27;;;5.32;;
38853;SDS011;24606;51.992;4.198;2023-02-15T07:20:27;12.32;;;5.35;;
38853;SDS011;24606;51.992;4.198;2023-02-15T07:25:29;7.75;;;5.13;;
38853;SDS011;24606;51.992;4.198;2023-02-15T07:30:32;8.30;;;5.43;;
38853;SDS011;24606;51.992;4.198;2023-02-15T07:35:35;8.45;;;5.45;;
38853;SDS011;24606;51.992;4.198;2023-02-15T07:40:37;10.65;;;5.45;;
38853;SDS011;24606;51.992;4.198;2023-02-15T07:45:40;8.88;;;5.32;;
38853;SDS011;24606;51.992;4.198;2023-02-15T07:50:42;7.60;;;5.80;;
38853;SDS011;24606;51.992;4.198;2023-02-15T07:55:44;9.00;;;5.63;;
38853;SDS011;24606;51.992;4.198;2023-02-15T08:00:47;9.93;;;5.18;;
38853;SDS011;24606;51.992;4.198;2023-02-15T08:05:59;9.32;;;6.05;;
38853;SDS011;24606;51.992;4.198;2023-02-15T08:11:01;9.18;;;4.80;;
38853;SDS011;24606;51.992;4.198;2023-02-15T08:16:23;6.82;;;4.68;;
38853;SDS011;24606;51.992;4.198;2023-02-15T08:21:26;8.70;;;5.40;;
38853;SDS011;24606;51.992;4.198;2023-02-15T08:26:29;7.53;;;5.05;;
38853;SDS011;24606;51.992;4.198;2023-02-15T08:36:37;7.70;;;4.40;;
38853;SDS011;24606;51.992;4.198;2023-02-15T08:41:39;7.03;;;5.13;;
38853;SDS011;24606;51.992;4.198;2023-02-15T08:46:45;7.50;;;4.70;;
38853;SDS011;24606;51.992;4.198;2023-02-15T08:51:48;8.02;;;5.35;;
38853;SDS011;24606;51.992;4.198;2023-02-15T08:56:50;12.23;;;5.00;;
38853;SDS011;24606;51.992;4.198;2023-02-15T09:01:54;6.97;;;4.75;;
38853;SDS011;24606;51.992;4.198;2023-02-15T09:06:56;11.68;;;5.05;;
38853;SDS011;24606;51.992;4.198;2023-02-15T09:11:58;8.38;;;5.32;;
38853;SDS011;24606;51.992;4.198;2023-02-15T09:17:01;7.72;;;4.95;;
38853;SDS011;24606;51.992;4.198;2023-02-15T09:22:04;8.32;;;5.38;;
38853;SDS011;24606;51.992;4.198;2023-02-15T09:27:06;8.02;;;5.55;;
38853;SDS011;24606;51.992;4.198;2023-02-15T09:32:09;7.68;;;5.35;;
38853;SDS011;24606;51.992;4.198;2023-02-15T09:37:15;7.90;;;5.13;;
38853;SDS011;24606;51.992;4.198;2023-02-15T09:53:29;9.77;;;6.47;;
38853;SDS011;24606;51.992;4.198;2023-02-15T09:58:46;8.63;;;5.80;;
38853;SDS011;24606;51.992;4.198;2023-02-15T10:03:58;11.88;;;6.28;;
38853;SDS011;24606;51.992;4.198;2023-02-15T10:09:11;9.50;;;5.88;;
38853;SDS011;24606;51.992;4.198;2023-02-15T10:14:31;8.65;;;6.10;;
38853;SDS011;24606;51.992;4.198;2023-02-15T10:19:43;9.25;;;6.07;;
38853;SDS011;24606;51.992;4.198;2023-02-15T10:30:23;10.95;;;6.18;;
38853;SDS011;24606;51.992;4.198;2023-02-15T10:35:37;8.50;;;5.93;;
38853;SDS011;24606;51.992;4.198;2023-02-15T10:40:46;15.70;;;6.88;;
38853;SDS011;24606;51.992;4.198;2023-02-15T10:46:01;11.70;;;6.82;;
38853;SDS011;24606;51.992;4.198;2023-02-15T10:51:10;13.15;;;6.55;;
38853;SDS011;24606;51.992;4.198;2023-02-15T10:56:20;15.00;;;6.27;;
38853;SDS011;24606;51.992;4.198;2023-02-15T11:01:30;11.25;;;6.63;;
38853;SDS011;24606;51.992;4.198;2023-02-15T11:06:37;21.10;;;13.35;;
38853;SDS011;24606;51.992;4.198;2023-02-15T11:11:43;10.52;;;6.63;;
38853;SDS011;24606;51.992;4.198;2023-02-15T11:16:49;10.90;;;6.57;;
38853;SDS011;24606;51.992;4.198;2023-02-15T11:21:57;11.00;;;6.50;;
38853;SDS011;24606;51.992;4.198;2023-02-15T11:27:02;23.73;;;11.52;;
38853;SDS011;24606;51.992;4.198;2023-02-15T11:32:12;11.45;;;7.00;;
38853;SDS011;24606;51.992;4.198;2023-02-15T11:37:22;10.65;;;7.28;;
38853;SDS011;24606;51.992;4.198;2023-02-15T11:42:29;16.33;;;7.30;;
38853;SDS011;24606;51.992;4.198;2023-02-15T11:47:33;19.88;;;11.15;;
38853;SDS011;24606;51.992;4.198;2023-02-15T11:52:37;21.10;;;12.68;;
38853;SDS011;24606;51.992;4.198;2023-02-15T11:57:39;12.18;;;7.47;;
38853;SDS011;24606;51.992;4.198;2023-02-15T12:02:46;14.00;;;8.00;;
38853;SDS011;24606;51.992;4.198;2023-02-15T12:07:55;31.50;;;16.02;;
38853;SDS011;24606;51.992;4.198;2023-02-15T12:13:10;40.47;;;20.67;;
38853;SDS011;24606;51.992;4.198;2023-02-15T12:18:21;20.58;;;11.15;;
38853;SDS011;24606;51.992;4.198;2023-02-15T12:23:39;13.95;;;8.68;;
38853;SDS011;24606;51.992;4.198;2023-02-15T12:28:48;14.00;;;8.13;;
38853;SDS011;24606;51.992;4.198;2023-02-15T12:33:53;16.77;;;8.95;;
38853;SDS011;24606;51.992;4.198;2023-02-15T12:39:15;13.07;;;7.40;;
38853;SDS011;24606;51.992;4.198;2023-02-15T12:44:20;15.63;;;9.25;;
38853;SDS011;24606;51.992;4.198;2023-02-15T12:49:25;15.65;;;8.70;;
38853;SDS011;24606;51.992;4.198;2023-02-15T12:54:36;12.85;;;7.18;;
38853;SDS011;24606;51.992;4.198;2023-02-15T12:59:47;10.75;;;7.10;;
38853;SDS011;24606;51.992;4.198;2023-02-15T13:04:50;27.45;;;15.55;;
38853;SDS011;24606;51.992;4.198;2023-02-15T13:09:53;11.90;;;7.32;;
38853;SDS011;24606;51.992;4.198;2023-02-15T13:14:55;11.57;;;7.32;;
38853;SDS011;24606;51.992;4.198;2023-02-15T13:20:00;12.25;;;7.05;;
38853;SDS011;24606;51.992;4.198;2023-02-15T13:25:09;55.33;;;28.00;;
38853;SDS011;24606;51.992;4.198;2023-02-15T13:35:37;13.85;;;7.45;;
38853;SDS011;24606;51.992;4.198;2023-02-15T13:40:46;40.83;;;22.23;;
38853;SDS011;24606;51.992;4.198;2023-02-15T13:46:01;26.60;;;15.82;;
38853;SDS011;24606;51.992;4.198;2023-02-15T13:51:21;35.75;;;19.23;;
38853;SDS011;24606;51.992;4.198;2023-02-15T13:56:31;52.05;;;23.60;;
38853;SDS011;24606;51.992;4.198;2023-02-15T14:01:42;21.80;;;11.75;;
38853;SDS011;24606;51.992;4.198;2023-02-15T14:06:48;47.25;;;25.00;;
38853;SDS011;24606;51.992;4.198;2023-02-15T14:12:15;29.75;;;14.45;;
38853;SDS011;24606;51.992;4.198;2023-02-15T14:17:40;31.83;;;17.40;;
38853;SDS011;24606;51.992;4.198;2023-02-15T14:22:50;18.25;;;10.13;;
38853;SDS011;24606;51.992;4.198;2023-02-15T14:28:05;33.28;;;18.20;;
38853;SDS011;24606;51.992;4.198;2023-02-15T14:33:18;14.82;;;8.52;;
38853;SDS011;24606;51.992;4.198;2023-02-15T14:43:46;34.20;;;19.33;;
38853;SDS011;24606;51.992;4.198;2023-02-15T14:48:53;25.02;;;8.63;;
38853;SDS011;24606;51.992;4.198;2023-02-15T14:53:57;11.45;;;7.47;;
38853;SDS011;24606;51.992;4.198;2023-02-15T14:59:11;11.25;;;7.22;;
38853;SDS011;24606;51.992;4.198;2023-02-15T15:04:21;13.95;;;6.78;;
38853;SDS011;24606;51.992;4.198;2023-02-15T15:09:27;11.48;;;6.57;;
38853;SDS011;24606;51.992;4.198;2023-02-15T15:14:39;12.10;;;7.18;;
38853;SDS011;24606;51.992;4.198;2023-02-15T15:25:09;10.85;;;6.03;;
38853;SDS011;24606;51.992;4.198;2023-02-15T15:35:54;9.15;;;5.68;;
38853;SDS011;24606;51.992;4.198;2023-02-15T15:41:18;8.48;;;5.38;;
38853;SDS011;24606;51.992;4.198;2023-02-15T15:52:13;7.68;;;5.18;;
38853;SDS011;24606;51.992;4.198;2023-02-15T15:57:18;8.20;;;5.45;;
38853;SDS011;24606;51.992;4.198;2023-02-15T16:02:27;8.85;;;5.60;;
38853;SDS011;24606;51.992;4.198;2023-02-15T16:07:30;8.45;;;5.13;;
38853;SDS011;24606;51.992;4.198;2023-02-15T16:12:33;6.97;;;4.90;;
38853;SDS011;24606;51.992;4.198;2023-02-15T16:17:36;6.93;;;5.05;;
38853;SDS011;24606;51.992;4.198;2023-02-15T16:22:43;7.60;;;5.05;;
38853;SDS011;24606;51.992;4.198;2023-02-15T16:27:46;7.75;;;5.30;;
38853;SDS011;24606;51.992;4.198;2023-02-15T16:32:51;10.57;;;4.80;;
38853;SDS011;24606;51.992;4.198;2023-02-15T16:37:55;8.30;;;5.00;;
38853;SDS011;24606;51.992;4.198;2023-02-15T16:42:59;12.18;;;5.07;;
38853;SDS011;24606;51.992;4.198;2023-02-15T16:48:06;7.22;;;4.70;;
38853;SDS011;24606;51.992;4.198;2023-02-15T16:53:16;8.40;;;4.90;;
38853;SDS011;24606;51.992;4.198;2023-02-15T16:58:23;6.85;;;5.13;;
38853;SDS011;24606;51.992;4.198;2023-02-15T17:03:29;7.82;;;4.88;;
38853;SDS011;24606;51.992;4.198;2023-02-15T17:08:33;6.40;;;5.10;;
38853;SDS011;24606;51.992;4.198;2023-02-15T17:13:37;11.73;;;7.55;;
38853;SDS011;24606;51.992;4.198;2023-02-15T17:18:40;7.32;;;5.78;;
38853;SDS011;24606;51.992;4.198;2023-02-15T17:23:47;9.13;;;5.32;;
38853;SDS011;24606;51.992;4.198;2023-02-15T17:28:51;11.70;;;5.18;;
38853;SDS011;24606;51.992;4.198;2023-02-15T17:33:56;9.70;;;7.22;;
38853;SDS011;24606;51.992;4.198;2023-02-15T17:44:03;9.25;;;5.53;;
38853;SDS011;24606;51.992;4.198;2023-02-15T17:49:11;10.45;;;5.35;;
38853;SDS011;24606;51.992;4.198;2023-02-15T17:54:25;11.90;;;6.88;;
38853;SDS011;24606;51.992;4.198;2023-02-15T17:59:44;12.55;;;5.90;;
38853;SDS011;24606;51.992;4.198;2023-02-15T18:05:04;36.05;;;17.52;;
38853;SDS011;24606;51.992;4.198;2023-02-15T18:10:28;14.10;;;5.10;;
38853;SDS011;24606;51.992;4.198;2023-02-15T18:15:47;24.13;;;12.27;;
38853;SDS011;24606;51.992;4.198;2023-02-15T18:20:49;38.08;;;22.15;;
38853;SDS011;24606;51.992;4.198;2023-02-15T18:25:52;23.65;;;14.00;;
38853;SDS011;24606;51.992;4.198;2023-02-15T18:30:54;22.77;;;13.93;;
38853;SDS011;24606;51.992;4.198;2023-02-15T18:35:56;22.25;;;12.57;;
38853;SDS011;24606;51.992;4.198;2023-02-15T18:40:59;37.25;;;18.27;;
38853;SDS011;24606;51.992;4.198;2023-02-15T18:46:03;31.17;;;17.73;;
38853;SDS011;24606;51.992;4.198;2023-02-15T18:51:07;37.03;;;21.03;;
38853;SDS011;24606;51.992;4.198;2023-02-15T18:56:19;39.22;;;22.08;;
38853;SDS011;24606;51.992;4.198;2023-02-15T19:01:22;27.55;;;15.32;;
38853;SDS011;24606;51.992;4.198;2023-02-15T19:06:24;43.17;;;20.53;;
38853;SDS011;24606;51.992;4.198;2023-02-15T19:11:30;40.25;;;18.33;;
38853;SDS011;24606;51.992;4.198;2023-02-15T19:16:33;23.92;;;12.27;;
38853;SDS011;24606;51.992;4.198;2023-02-15T19:21:36;40.92;;;23.08;;
38853;SDS011;24606;51.992;4.198;2023-02-15T19:26:40;48.80;;;25.47;;
38853;SDS011;24606;51.992;4.198;2023-02-15T19:31:42;25.70;;;13.43;;
38853;SDS011;24606;51.992;4.198;2023-02-15T19:36:45;38.15;;;20.98;;
38853;SDS011;24606;51.992;4.198;2023-02-15T19:41:51;41.85;;;22.92;;
38853;SDS011;24606;51.992;4.198;2023-02-15T19:46:53;23.60;;;13.00;;
38853;SDS011;24606;51.992;4.198;2023-02-15T19:51:55;26.23;;;13.77;;
38853;SDS011;24606;51.992;4.198;2023-02-15T19:56:58;29.58;;;14.95;;
38853;SDS011;24606;51.992;4.198;2023-02-15T20:02:00;49.47;;;23.38;;
38853;SDS011;24606;51.992;4.198;2023-02-15T20:07:02;32.40;;;19.30;;
38853;SDS011;24606;51.992;4.198;2023-02-15T20:12:15;36.08;;;18.38;;
38853;SDS011;24606;51.992;4.198;2023-02-15T20:17:20;17.95;;;9.32;;
38853;SDS011;24606;51.992;4.198;2023-02-15T20:22:23;23.17;;;13.25;;
38853;SDS011;24606;51.992;4.198;2023-02-15T20:27:29;39.15;;;17.63;;
38853;SDS011;24606;51.992;4.198;2023-02-15T20:32:33;18.88;;;10.98;;
38853;SDS011;24606;51.992;4.198;2023-02-15T20:37:35;51.85;;;29.00;;
38853;SDS011;24606;51.992;4.198;2023-02-15T20:42:38;42.22;;;21.80;;
38853;SDS011;24606;51.992;4.198;2023-02-15T20:47:40;30.83;;;17.27;;
38853;SDS011;24606;51.992;4.198;2023-02-15T20:52:43;17.92;;;10.23;;
38853;SDS011;24606;51.992;4.198;2023-02-15T20:57:47;31.40;;;14.65;;
38853;SDS011;24606;51.992;4.198;2023-02-15T21:02:49;16.77;;;9.38;;
38853;SDS011;24606;51.992;4.198;2023-02-15T21:07:52;36.13;;;20.45;;
38853;SDS011;24606;51.992;4.198;2023-02-15T21:18:00;27.73;;;15.63;;
38853;SDS011;24606;51.992;4.198;2023-02-15T21:23:04;26.88;;;15.68;;
38853;SDS011;24606;51.992;4.198;2023-02-15T21:28:10;17.08;;;7.72;;
38853;SDS011;24606;51.992;4.198;2023-02-15T21:33:19;26.27;;;14.90;;
38853;SDS011;24606;51.992;4.198;2023-02-15T21:38:21;15.63;;;8.50;;
38853;SDS011;24606;51.992;4.198;2023-02-15T21:43:26;21.15;;;10.82;;
38853;SDS011;24606;51.992;4.198;2023-02-15T21:48:46;11.52;;;6.78;;
38853;SDS011;24606;51.992;4.198;2023-02-15T21:53:47;18.58;;;8.00;;
38853;SDS011;24606;51.992;4.198;2023-02-15T21:58:51;13.13;;;6.68;;
38853;SDS011;24606;51.992;4.198;2023-02-15T22:03:53;16.83;;;7.10;;
38853;SDS011;24606;51.992;4.198;2023-02-15T22:08:57;13.02;;;7.45;;
38853;SDS011;24606;51.992;4.198;2023-02-15T22:14:01;11.43;;;6.68;;
38853;SDS011;24606;51.992;4.198;2023-02-15T22:19:03;13.15;;;7.13;;
38853;SDS011;24606;51.992;4.198;2023-02-15T22:24:05;29.48;;;17.92;;
38853;SDS011;24606;51.992;4.198;2023-02-15T22:29:09;14.18;;;6.93;;
38853;SDS011;24606;51.992;4.198;2023-02-15T22:34:21;11.25;;;7.35;;
38853;SDS011;24606;51.992;4.198;2023-02-15T22:39:26;11.13;;;7.22;;
38853;SDS011;24606;51.992;4.198;2023-02-15T22:44:31;10.27;;;6.63;;
38853;SDS011;24606;51.992;4.198;2023-02-15T22:49:34;11.43;;;7.07;;
38853;SDS011;24606;51.992;4.198;2023-02-15T22:54:36;9.70;;;6.03;;
38853;SDS011;24606;51.992;4.198;2023-02-15T22:59:39;15.57;;;7.45;;
38853;SDS011;24606;51.992;4.198;2023-02-15T23:04:41;23.95;;;13.80;;
38853;SDS011;24606;51.992;4.198;2023-02-15T23:09:43;15.02;;;7.68;;
38853;SDS011;24606;51.992;4.198;2023-02-15T23:14:47;28.58;;;18.02;;
38853;SDS011;24606;51.992;4.198;2023-02-15T23:19:49;14.45;;;7.95;;
38853;SDS011;24606;51.992;4.198;2023-02-15T23:24:51;19.05;;;8.00;;
38853;SDS011;24606;51.992;4.198;2023-02-15T23:34:56;15.75;;;8.75;;
38853;SDS011;24606;51.992;4.198;2023-02-15T23:39:58;13.00;;;8.30;;
38853;SDS011;24606;51.992;4.198;2023-02-15T23:45:21;12.63;;;7.40;;
38853;SDS011;24606;51.992;4.198;2023-02-15T23:50:26;14.75;;;8.88;;
38853;SDS011;24606;51.992;4.198;2023-02-15T23:55:32;20.35;;;11.93;;
